Time;durP1;ratioP1;P1;durP2;ratioP2;P2;SDS_P1;SDS_P2;PMS_P1;PMS_P2;Temp;Humidity;BMP_temperature;BMP_pressure;BME280_temperature;BME280_humidity;BME280_pressure;Samples;Min_cycle;Max_cycle;Signal;HPM_P1;HPM_P2
2022/12/05 00:01:19;;;;;;;28.85;15.82;;;4.60;99.90;;;;;;5109961;28;20110;-67
2022/12/05 00:03:47;;;;;;;30.52;17.27;;;4.50;99.90;;;;;;5077381;28;20085;-67
2022/12/05 00:06:13;;;;;;;31.33;16.38;;;4.50;99.90;;;;;;5089222;28;20104;-67
2022/12/05 00:08:39;;;;;;;27.50;16.25;;;4.50;99.90;;;;;;5087764;28;20040;-67
2022/12/05 00:11:17;;;;;;;27.92;16.45;;;4.60;99.90;;;;;;5080392;28;20036;-67
2022/12/05 00:13:45;;;;;;;27.50;15.32;;;4.50;99.90;;;;;;5087838;28;20496;-67
2022/12/05 00:16:13;;;;;;;23.98;14.43;;;4.50;99.90;;;;;;5070772;28;20499;-67
2022/12/05 00:18:39;;;;;;;27.35;16.00;;;4.60;99.90;;;;;;5081982;28;20036;-67
2022/12/05 00:21:41;;;;;;;25.40;14.13;;;4.60;99.90;;;;;;5071628;28;20036;-67
2022/12/05 00:27:28;;;;;;;27.10;15.07;;;4.60;99.90;;;;;;5104562;28;20044;-68
2022/12/05 00:29:54;;;;;;;27.05;15.10;;;4.60;99.90;;;;;;5109384;28;20092;-67
2022/12/05 00:32:20;;;;;;;26.42;15.35;;;4.60;99.90;;;;;;5089090;28;20079;-67
2022/12/05 00:34:46;;;;;;;27.02;16.42;;;4.60;99.90;;;;;;5089922;28;20078;-67
2022/12/05 00:37:11;;;;;;;25.50;15.63;;;4.60;99.90;;;;;;5080935;28;20048;-67
2022/12/05 00:39:38;;;;;;;28.15;16.17;;;4.70;99.90;;;;;;5088371;28;20047;-67
2022/12/05 00:42:03;;;;;;;26.95;16.35;;;4.70;99.90;;;;;;5082357;28;20127;-67
2022/12/05 00:44:29;;;;;;;29.55;16.08;;;4.70;99.90;;;;;;5092013;28;20119;-67
2022/12/05 00:46:55;;;;;;;29.40;16.60;;;4.70;99.90;;;;;;5091627;28;20051;-67
2022/12/05 00:49:20;;;;;;;27.85;16.92;;;4.70;99.90;;;;;;5108818;28;20610;-67
2022/12/05 00:51:46;;;;;;;26.08;15.00;;;4.70;99.90;;;;;;5086530;28;20056;-67
2022/12/05 00:54:15;;;;;;;29.67;16.70;;;4.70;99.90;;;;;;5091869;28;20176;-67
2022/12/05 00:56:42;;;;;;;28.00;16.52;;;4.60;99.90;;;;;;5109453;28;20069;-67
2022/12/05 00:59:11;;;;;;;27.52;15.88;;;4.60;99.90;;;;;;5091933;28;20048;-67
2022/12/05 01:01:40;;;;;;;28.73;15.88;;;4.70;99.90;;;;;;5092356;28;20078;-67
2022/12/05 01:04:13;;;;;;;31.48;16.98;;;4.70;99.90;;;;;;5086733;28;20115;-67
2022/12/05 01:06:39;;;;;;;29.00;14.80;;;4.70;99.90;;;;;;5092530;28;20048;-67
2022/12/05 01:09:06;;;;;;;29.80;15.85;;;4.70;99.90;;;;;;5095036;28;20044;-67
2022/12/05 01:11:32;;;;;;;26.27;16.05;;;4.70;99.90;;;;;;5065322;28;20039;-67
2022/12/05 01:13:58;;;;;;;27.75;15.32;;;4.60;99.90;;;;;;5108405;28;20491;-67
2022/12/05 01:16:30;;;;;;;30.73;16.80;;;4.70;99.90;;;;;;5112779;28;20055;-67
2022/12/05 01:18:57;;;;;;;26.98;15.25;;;4.60;99.90;;;;;;5113215;28;20089;-67
2022/12/05 01:21:24;;;;;;;28.95;15.95;;;4.70;99.90;;;;;;5113293;28;20042;-68
2022/12/05 01:23:50;;;;;;;27.83;16.50;;;4.70;99.90;;;;;;5094708;28;20071;-67
2022/12/05 01:26:18;;;;;;;29.98;16.58;;;4.70;99.90;;;;;;5075977;28;20050;-68
2022/12/05 01:28:44;;;;;;;29.52;16.55;;;4.70;99.90;;;;;;5084834;28;20051;-68
2022/12/05 01:31:22;;;;;;;31.10;17.30;;;4.70;99.90;;;;;;5112607;28;20093;-68
2022/12/05 01:33:48;;;;;;;28.55;15.77;;;4.70;99.90;;;;;;5112785;28;20040;-67
2022/12/05 01:36:14;;;;;;;33.28;17.58;;;4.70;99.90;;;;;;5112688;28;20047;-67
2022/12/05 01:38:41;;;;;;;29.20;16.98;;;4.70;99.90;;;;;;5090975;28;20044;-67
2022/12/05 01:41:11;;;;;;;31.73;17.27;;;4.70;99.90;;;;;;5101437;28;20082;-67
2022/12/05 01:43:58;;;;;;;28.98;17.48;;;4.70;99.90;;;;;;5092230;28;20039;-67
2022/12/05 01:46:26;;;;;;;32.33;18.42;;;4.80;99.90;;;;;;5104909;28;20523;-67
2022/12/05 01:48:56;;;;;;;29.42;17.00;;;4.80;99.90;;;;;;5077127;28;20036;-67
2022/12/05 01:51:22;;;;;;;31.17;17.40;;;4.80;99.90;;;;;;5073332;28;20408;-67
2022/12/05 01:53:48;;;;;;;30.17;17.23;;;4.80;99.90;;;;;;5084833;28;20080;-67
2022/12/05 01:56:16;;;;;;;30.73;17.90;;;4.80;99.90;;;;;;5090161;28;20048;-67
2022/12/05 01:58:43;;;;;;;32.78;18.45;;;4.80;99.90;;;;;;5107738;28;20047;-67
2022/12/05 02:01:12;;;;;;;37.25;18.15;;;4.80;99.90;;;;;;5111570;28;20399;-67
2022/12/05 02:03:40;;;;;;;33.85;19.80;;;4.90;99.90;;;;;;5080563;28;20088;-68
2022/12/05 02:06:06;;;;;;;33.83;19.17;;;4.90;99.90;;;;;;5073465;28;20131;-67
2022/12/05 02:08:32;;;;;;;36.88;20.77;;;4.90;99.90;;;;;;5091694;28;20043;-68
2022/12/05 02:10:58;;;;;;;33.80;20.23;;;4.90;99.90;;;;;;5084371;28;20465;-68
2022/12/05 02:13:42;;;;;;;39.22;20.45;;;5.00;99.90;;;;;;5111853;28;20119;-67
2022/12/05 02:16:19;;;;;;;37.72;22.05;;;5.00;99.90;;;;;;5085023;28;20075;-68
2022/12/05 02:18:54;;;;;;;36.60;21.40;;;5.00;99.90;;;;;;5091453;28;20585;-67
2022/12/05 02:21:20;;;;;;;39.30;20.63;;;5.00;99.90;;;;;;5086549;28;20040;-68
2022/12/05 02:23:59;;;;;;;35.13;19.70;;;5.00;99.90;;;;;;5104562;28;20397;-67
2022/12/05 02:26:53;;;;;;;38.17;19.92;;;5.00;99.90;;;;;;5090200;28;20052;-67
2022/12/05 02:29:37;;;;;;;35.88;20.38;;;5.10;99.90;;;;;;5105004;28;20044;-67
2022/12/05 02:32:24;;;;;;;36.35;21.05;;;5.10;99.90;;;;;;5073333;28;20415;-67
2022/12/05 02:35:02;;;;;;;42.58;22.33;;;5.10;99.90;;;;;;5084679;28;20047;-67
2022/12/05 02:38:19;;;;;;;36.95;21.17;;;5.10;99.90;;;;;;5111483;28;20050;-67
2022/12/05 02:41:03;;;;;;;37.10;20.58;;;5.10;99.90;;;;;;5069784;28;20081;-67
2022/12/05 02:43:39;;;;;;;37.85;20.02;;;5.10;99.90;;;;;;5083064;28;20051;-67
2022/12/05 02:46:15;;;;;;;41.67;21.75;;;5.10;99.90;;;;;;5090055;28;20036;-67
2022/12/05 02:48:45;;;;;;;46.33;23.30;;;5.10;99.90;;;;;;5091234;28;20050;-67
2022/12/05 02:51:15;;;;;;;38.90;21.83;;;5.10;99.90;;;;;;5111328;28;20119;-67
2022/12/05 02:53:43;;;;;;;43.40;21.48;;;5.10;99.90;;;;;;5069676;28;20056;-67
2022/12/05 02:56:10;;;;;;;39.70;20.50;;;5.10;99.90;;;;;;5072563;28;20047;-67
2022/12/05 02:58:50;;;;;;;41.17;19.80;;;5.10;99.90;;;;;;5081710;28;20051;-67
2022/12/05 03:01:18;;;;;;;38.75;20.73;;;5.10;99.90;;;;;;5086316;28;20123;-68
2022/12/05 03:03:44;;;;;;;36.63;19.92;;;5.20;99.90;;;;;;5089378;28;20097;-67
2022/12/05 03:06:24;;;;;;;37.88;20.38;;;5.10;99.90;;;;;;5090542;28;20048;-68
2022/12/05 03:09:05;;;;;;;41.73;21.67;;;5.20;99.90;;;;;;5088340;28;20115;-67
2022/12/05 03:11:46;;;;;;;38.58;20.33;;;5.20;99.90;;;;;;5110601;28;20277;-67
2022/12/05 03:14:21;;;;;;;40.17;21.67;;;5.20;99.90;;;;;;5111018;28;20087;-67
2022/12/05 03:16:53;;;;;;;41.00;21.25;;;5.20;99.90;;;;;;5089098;28;20376;-67
2022/12/05 03:19:26;;;;;;;39.83;20.40;;;5.20;99.90;;;;;;5102238;28;20039;-67
2022/12/05 03:22:09;;;;;;;45.97;24.92;;;5.20;99.90;;;;;;5092446;28;20035;-67
2022/12/05 03:24:38;;;;;;;43.08;22.02;;;5.20;99.90;;;;;;5110703;28;20036;-67
2022/12/05 03:27:15;;;;;;;46.40;24.00;;;5.10;99.90;;;;;;5110198;28;20168;-67
2022/12/05 03:30:03;;;;;;;50.60;24.35;;;5.10;99.90;;;;;;5110798;28;20043;-67
2022/12/05 03:32:37;;;;;;;45.38;21.63;;;5.10;99.90;;;;;;5092277;28;20075;-67
2022/12/05 03:35:27;;;;;;;47.80;24.50;;;5.10;99.90;;;;;;5110512;28;20040;-67
2022/12/05 03:38:25;;;;;;;47.45;24.27;;;5.10;99.90;;;;;;5110227;28;20048;-67
2022/12/05 03:41:19;;;;;;;48.30;21.98;;;5.10;99.90;;;;;;5088086;28;20036;-67
2022/12/05 03:43:56;;;;;;;56.15;23.15;;;5.10;99.90;;;;;;5094830;28;20511;-67
2022/12/05 03:46:28;;;;;;;53.95;25.42;;;5.10;99.90;;;;;;5086690;28;20529;-66
2022/12/05 03:49:09;;;;;;;47.15;24.00;;;5.10;99.90;;;;;;5110385;28;20043;-67
2022/12/05 03:51:50;;;;;;;38.88;20.80;;;5.10;99.90;;;;;;5110141;28;20439;-67
2022/12/05 03:54:28;;;;;;;37.13;20.35;;;5.10;99.90;;;;;;5110037;28;20156;-67
2022/12/05 03:57:04;;;;;;;40.92;20.95;;;5.10;99.90;;;;;;5091643;28;20063;-66
2022/12/05 03:59:46;;;;;;;30.92;18.40;;;5.10;99.90;;;;;;5089447;28;20067;-66
2022/12/05 04:02:44;;;;;;;41.70;19.35;;;5.20;99.90;;;;;;5088618;28;20036;-66
2022/12/05 04:05:20;;;;;;;34.45;17.77;;;5.20;99.90;;;;;;5101498;28;20027;-66
2022/12/05 04:07:50;;;;;;;30.70;16.83;;;5.20;99.90;;;;;;5088905;28;20040;-66
2022/12/05 04:10:21;;;;;;;26.33;15.70;;;5.20;99.90;;;;;;5106067;28;20032;-66
2022/12/05 04:12:50;;;;;;;29.42;16.50;;;5.20;99.90;;;;;;5110386;28;20043;-66
2022/12/05 04:17:01;;;;;;;32.78;16.95;;;5.20;99.90;;;;;;5088270;28;20037;-66
2022/12/05 04:18:14;;;;;;;27.15;14.77;;;5.20;99.90;;;;;;5084935;28;20044;-66
2022/12/05 04:23:26;;;;;;;25.52;13.65;;;5.20;99.90;;;;;;5093734;28;20075;-66
2022/12/05 04:26:26;;;;;;;27.40;14.88;;;5.30;99.90;;;;;;5093332;28;20040;-66
2022/12/05 04:29:04;;;;;;;29.00;15.50;;;5.20;99.90;;;;;;5075276;28;20067;-66
2022/12/05 04:31:46;;;;;;;26.98;14.80;;;5.30;99.90;;;;;;5090466;28;20048;-66
2022/12/05 04:34:14;;;;;;;26.50;13.95;;;5.30;99.90;;;;;;5084419;28;20051;-66
2022/12/05 04:37:05;;;;;;;21.10;13.07;;;5.20;99.90;;;;;;5092051;28;20123;-66
2022/12/05 04:39:46;;;;;;;24.10;13.63;;;5.20;99.90;;;;;;5076953;28;20063;-66
2022/12/05 04:42:23;;;;;;;24.10;13.45;;;5.30;99.90;;;;;;5113751;28;20040;-66
2022/12/05 04:44:53;;;;;;;23.35;12.70;;;5.30;99.90;;;;;;5113872;28;20065;-66
2022/12/05 04:47:22;;;;;;;23.85;13.70;;;5.30;99.90;;;;;;5073439;28;20046;-66
2022/12/05 04:49:50;;;;;;;26.55;14.48;;;5.30;99.90;;;;;;5110306;28;20100;-66
2022/12/05 04:52:16;;;;;;;21.42;13.05;;;5.30;99.90;;;;;;5085593;28;20128;-66
2022/12/05 04:54:52;;;;;;;24.80;14.00;;;5.30;99.90;;;;;;5091281;28;20048;-66
2022/12/05 04:57:25;;;;;;;22.00;12.07;;;5.30;99.90;;;;;;5109821;28;20044;-66
2022/12/05 04:59:51;;;;;;;21.67;13.15;;;5.30;99.90;;;;;;5113568;28;20043;-66
2022/12/05 05:02:25;;;;;;;21.88;11.98;;;5.30;99.90;;;;;;5090331;28;20040;-66
2022/12/05 05:04:56;;;;;;;21.65;12.23;;;5.30;99.90;;;;;;5109811;28;20123;-66
2022/12/05 05:07:22;;;;;;;19.50;11.60;;;5.30;99.90;;;;;;5092998;28;20048;-66
2022/12/05 05:09:48;;;;;;;22.90;12.60;;;5.30;99.90;;;;;;5091177;28;20122;-66
2022/12/05 05:12:14;;;;;;;21.88;12.13;;;5.30;99.90;;;;;;5103895;28;20067;-66
2022/12/05 05:14:40;;;;;;;21.63;12.13;;;5.30;99.90;;;;;;5089880;28;20177;-66
2022/12/05 05:17:05;;;;;;;18.88;11.43;;;5.30;99.90;;;;;;5108359;28;20052;-66
2022/12/05 05:19:31;;;;;;;22.83;12.30;;;5.30;99.90;;;;;;5084161;28;20071;-66
2022/12/05 05:21:57;;;;;;;18.77;10.98;;;5.30;99.90;;;;;;5085751;28;20039;-66
2022/12/05 05:24:25;;;;;;;19.88;10.90;;;5.30;99.90;;;;;;5066069;28;20038;-66
2022/12/05 05:26:51;;;;;;;18.23;10.80;;;5.30;99.90;;;;;;5092556;28;20028;-66
2022/12/05 05:29:17;;;;;;;20.65;10.20;;;5.30;99.90;;;;;;5091274;28;20119;-66
2022/12/05 05:31:44;;;;;;;18.58;10.80;;;5.30;99.90;;;;;;5108876;28;20046;-66
2022/12/05 05:34:10;;;;;;;17.23;9.95;;;5.30;99.90;;;;;;5111855;28;20046;-66
2022/12/05 05:36:37;;;;;;;20.38;11.00;;;5.30;99.90;;;;;;5093130;28;20122;-65
2022/12/05 05:39:04;;;;;;;18.77;10.80;;;5.30;99.90;;;;;;5112106;28;20096;-66
2022/12/05 05:41:32;;;;;;;20.15;11.18;;;5.30;99.90;;;;;;5091727;28;20036;-66
2022/12/05 05:43:58;;;;;;;16.92;9.63;;;5.30;99.90;;;;;;5094073;28;20039;-66
2022/12/05 05:46:27;;;;;;;23.70;13.52;;;5.30;99.90;;;;;;5094007;28;20043;-66
2022/12/05 05:48:52;;;;;;;18.80;9.85;;;5.30;99.90;;;;;;5093878;28;20073;-65
2022/12/05 05:51:20;;;;;;;20.45;11.13;;;5.30;99.90;;;;;;5111639;28;20047;-66
2022/12/05 05:53:46;;;;;;;19.00;10.68;;;5.30;99.90;;;;;;5093963;28;20134;-66
2022/12/05 05:56:15;;;;;;;20.70;10.65;;;5.40;99.90;;;;;;5094452;28;20041;-66
2022/12/05 05:58:41;;;;;;;18.48;10.45;;;5.30;99.90;;;;;;5092291;28;20124;-66
2022/12/05 06:01:15;;;;;;;18.55;10.68;;;5.40;99.90;;;;;;5083827;28;20036;-66
2022/12/05 06:03:43;;;;;;;22.90;11.45;;;5.40;99.90;;;;;;5086223;28;20035;-66
2022/12/05 06:06:11;;;;;;;21.67;10.82;;;5.40;99.90;;;;;;5111870;28;20051;-66
2022/12/05 06:08:39;;;;;;;17.15;10.70;;;5.40;99.90;;;;;;5077098;28;20086;-66
2022/12/05 06:11:07;;;;;;;18.92;10.18;;;5.40;99.90;;;;;;5109899;28;20119;-67
2022/12/05 06:13:33;;;;;;;21.15;10.93;;;5.40;99.90;;;;;;5104212;28;20480;-66
2022/12/05 06:15:59;;;;;;;24.52;11.77;;;5.40;99.90;;;;;;5090627;28;20048;-67
2022/12/05 06:18:24;;;;;;;19.70;10.90;;;5.40;99.90;;;;;;5103811;28;20054;-67
2022/12/05 06:20:55;;;;;;;22.55;11.32;;;5.40;99.90;;;;;;5091074;28;20040;-67
2022/12/05 06:23:21;;;;;;;19.38;11.02;;;5.40;99.90;;;;;;5103783;28;20039;-66
2022/12/05 06:25:51;;;;;;;16.75;9.88;;;5.40;99.90;;;;;;5093565;28;20050;-67
2022/12/05 06:28:18;;;;;;;20.60;10.88;;;5.40;99.90;;;;;;5093807;28;20360;-66
2022/12/05 06:30:44;;;;;;;20.95;10.77;;;5.40;99.90;;;;;;5067511;28;20129;-67
2022/12/05 06:33:10;;;;;;;18.50;10.23;;;5.40;99.90;;;;;;5080763;28;20031;-67
2022/12/05 06:35:36;;;;;;;19.50;11.25;;;5.40;99.90;;;;;;5063748;28;20682;-66
2022/12/05 06:38:02;;;;;;;20.15;10.70;;;5.40;99.90;;;;;;5072874;28;20044;-67
2022/12/05 06:40:28;;;;;;;16.63;9.82;;;5.40;99.90;;;;;;5086845;28;20072;-67
2022/12/05 06:42:54;;;;;;;15.90;9.60;;;5.40;99.90;;;;;;5083212;28;20079;-67
2022/12/05 06:45:20;;;;;;;17.10;9.82;;;5.40;99.90;;;;;;5093280;28;20372;-67
2022/12/05 06:47:46;;;;;;;22.08;10.63;;;5.40;99.90;;;;;;5077410;28;20123;-67
2022/12/05 06:50:12;;;;;;;20.52;9.75;;;5.40;99.90;;;;;;5090560;28;20127;-67
2022/12/05 06:52:38;;;;;;;23.90;9.77;;;5.40;99.90;;;;;;5081372;28;20054;-67
2022/12/05 06:55:04;;;;;;;17.77;10.05;;;5.40;99.90;;;;;;5090857;28;20043;-67
2022/12/05 06:57:30;;;;;;;16.30;10.30;;;5.40;99.90;;;;;;5072588;28;20040;-67
2022/12/05 07:02:42;;;;;;;20.40;10.02;;;5.40;99.90;;;;;;5045446;28;20123;-67
2022/12/05 07:05:09;;;;;;;15.07;8.68;;;5.40;99.90;;;;;;5104028;28;20044;-67
2022/12/05 07:07:35;;;;;;;17.27;9.60;;;5.40;99.90;;;;;;5090947;28;20079;-66
2022/12/05 07:10:02;;;;;;;17.45;10.65;;;5.40;99.90;;;;;;5072834;28;20086;-66
2022/12/05 07:12:27;;;;;;;15.00;8.75;;;5.40;99.90;;;;;;5057037;28;20044;-67
2022/12/05 07:14:53;;;;;;;19.58;10.25;;;5.40;99.90;;;;;;5109800;28;20067;-67
2022/12/05 07:17:20;;;;;;;18.10;9.85;;;5.40;99.90;;;;;;5082288;28;20032;-66
2022/12/05 07:19:48;;;;;;;18.33;10.55;;;5.40;99.90;;;;;;5082009;28;20365;-66
2022/12/05 07:22:14;;;;;;;15.10;8.25;;;5.40;99.90;;;;;;5086663;28;20174;-66
2022/12/05 07:24:39;;;;;;;19.67;10.27;;;5.40;99.90;;;;;;5086590;28;20040;-66
2022/12/05 07:27:06;;;;;;;16.92;9.65;;;5.40;99.90;;;;;;5107792;28;20050;-67
2022/12/05 07:29:32;;;;;;;16.67;9.98;;;5.40;99.90;;;;;;5110239;28;20043;-67
2022/12/05 07:31:58;;;;;;;17.00;8.90;;;5.40;99.90;;;;;;5092176;28;20044;-67
2022/12/05 07:34:23;;;;;;;16.35;10.40;;;5.40;99.90;;;;;;5096996;28;20058;-67
2022/12/05 07:36:49;;;;;;;17.73;9.38;;;5.40;99.90;;;;;;5098875;28;20118;-67
2022/12/05 07:39:15;;;;;;;18.05;9.48;;;5.40;99.90;;;;;;5074398;28;20071;-68
2022/12/05 07:41:41;;;;;;;18.42;9.73;;;5.40;99.90;;;;;;5084489;28;20074;-67
2022/12/05 07:44:09;;;;;;;18.20;9.98;;;5.40;99.90;;;;;;5089708;28;20469;-67
2022/12/05 07:46:35;;;;;;;23.38;13.70;;;5.40;99.90;;;;;;5089541;28;20082;-66
2022/12/05 07:49:00;;;;;;;19.35;10.07;;;5.40;99.90;;;;;;5111099;28;20412;-66
2022/12/05 07:51:26;;;;;;;16.75;10.02;;;5.40;99.90;;;;;;5111797;28;20392;-67
2022/12/05 07:53:52;;;;;;;19.33;10.57;;;5.40;99.90;;;;;;5096686;28;20051;-66
2022/12/05 07:56:18;;;;;;;19.92;10.90;;;5.50;99.90;;;;;;5093011;28;20481;-66
2022/12/05 07:58:46;;;;;;;18.33;10.38;;;5.50;99.90;;;;;;5103279;28;20480;-66
2022/12/05 08:01:15;;;;;;;20.23;10.40;;;5.50;99.90;;;;;;5094363;28;20036;-66
2022/12/05 08:03:42;;;;;;;16.80;9.85;;;5.50;99.90;;;;;;5087182;28;20068;-66
2022/12/05 08:06:10;;;;;;;19.67;10.10;;;5.50;99.90;;;;;;5111993;28;20084;-66
2022/12/05 08:08:37;;;;;;;23.73;11.30;;;5.50;99.90;;;;;;5075973;28;20119;-66
2022/12/05 08:11:17;;;;;;;20.30;10.20;;;5.50;99.90;;;;;;5086392;28;20126;-66
2022/12/05 08:13:44;;;;;;;27.83;11.55;;;5.50;99.90;;;;;;5093693;28;20048;-66
2022/12/05 08:16:12;;;;;;;22.98;11.48;;;5.50;99.90;;;;;;5113864;28;20092;-66
2022/12/05 08:18:38;;;;;;;23.30;11.93;;;5.50;99.90;;;;;;5114576;28;20096;-66
2022/12/05 08:21:07;;;;;;;19.52;10.48;;;5.50;99.90;;;;;;5078923;28;20040;-66
2022/12/05 08:23:33;;;;;;;17.27;9.82;;;5.60;99.90;;;;;;5093986;28;20101;-66
2022/12/05 08:26:14;;;;;;;20.65;10.65;;;5.60;99.90;;;;;;5088874;28;20048;-66
2022/12/05 08:28:41;;;;;;;28.88;12.38;;;5.60;99.90;;;;;;5095568;28;20080;-66
2022/12/05 08:31:15;;;;;;;20.90;10.68;;;5.60;99.90;;;;;;5075385;28;20040;-66
2022/12/05 08:33:42;;;;;;;25.45;10.73;;;5.60;99.90;;;;;;5087902;28;20067;-66
2022/12/05 08:36:14;;;;;;;25.05;11.65;;;5.60;99.90;;;;;;5089530;28;20503;-66
2022/12/05 08:38:40;;;;;;;26.67;12.38;;;5.60;99.90;;;;;;5096211;28;20484;-66
2022/12/05 08:41:09;;;;;;;27.25;12.02;;;5.60;99.90;;;;;;5100140;28;20040;-66
2022/12/05 08:43:35;;;;;;;26.50;11.55;;;5.60;99.90;;;;;;5093471;28;20043;-65
2022/12/05 08:46:01;;;;;;;28.35;11.70;;;5.60;99.90;;;;;;5091041;28;20044;-65
2022/12/05 08:48:29;;;;;;;29.58;13.40;;;5.60;99.90;;;;;;5106714;28;20032;-65
2022/12/05 08:50:55;;;;;;;27.25;11.85;;;5.60;99.90;;;;;;5072750;28;20043;-65
2022/12/05 08:53:21;;;;;;;28.13;12.45;;;5.60;99.90;;;;;;5077389;28;20091;-65
2022/12/05 08:55:47;;;;;;;32.75;12.25;;;5.60;99.90;;;;;;5074826;28;20073;-65
2022/12/05 08:58:13;;;;;;;28.42;11.80;;;5.60;99.90;;;;;;5086861;28;20086;-65
2022/12/05 09:00:40;;;;;;;28.42;13.60;;;5.60;99.90;;;;;;5074692;28;20036;-65
2022/12/05 09:03:09;;;;;;;33.15;12.70;;;5.70;99.90;;;;;;5097996;28;20035;-65
2022/12/05 09:05:35;;;;;;;27.23;11.55;;;5.70;99.90;;;;;;5093125;28;20072;-66
2022/12/05 09:08:01;;;;;;;30.05;11.93;;;5.70;99.90;;;;;;5093228;28;20075;-66
2022/12/05 09:10:27;;;;;;;25.15;12.88;;;5.70;99.90;;;;;;5083735;28;20067;-66
2022/12/05 09:12:53;;;;;;;27.33;11.13;;;5.70;99.90;;;;;;5091489;28;20543;-66
2022/12/05 09:15:19;;;;;;;22.85;10.95;;;5.70;99.90;;;;;;5086230;28;20126;-66
2022/12/05 09:17:45;;;;;;;33.30;12.60;;;5.70;99.90;;;;;;5093046;28;20031;-66
2022/12/05 09:20:12;;;;;;;25.88;10.55;;;5.70;99.90;;;;;;5094593;28;20119;-66
2022/12/05 09:23:02;;;;;;;25.48;11.80;;;5.70;99.90;;;;;;5101449;28;20036;-66
2022/12/05 09:26:18;;;;;;;22.45;10.30;;;5.70;99.90;;;;;;5089212;28;20104;-65
2022/12/05 09:29:37;;;;;;;28.00;11.77;;;5.80;99.90;;;;;;5099228;28;20055;-65
2022/12/05 09:32:26;;;;;;;29.88;11.68;;;5.70;99.90;;;;;;5090853;28;20066;-66
2022/12/05 09:34:56;;;;;;;18.63;8.82;;;5.80;99.90;;;;;;5097289;28;20573;-65
2022/12/05 09:37:55;;;;;;;24.00;11.13;;;5.80;99.90;;;;;;5092436;28;20036;-65
2022/12/05 09:40:29;;;;;;;19.48;9.25;;;5.80;99.90;;;;;;5106652;28;20100;-65
2022/12/05 09:43:06;;;;;;;23.25;10.77;;;5.80;99.90;;;;;;5112143;28;20044;-65
2022/12/05 09:45:42;;;;;;;18.67;9.75;;;5.90;99.90;;;;;;5091100;28;20419;-66
2022/12/05 09:48:15;;;;;;;22.48;9.70;;;5.90;99.90;;;;;;5090965;28;20077;-65
2022/12/05 09:51:16;;;;;;;21.25;9.23;;;5.90;99.90;;;;;;5094070;28;20044;-65
2022/12/05 09:54:27;;;;;;;16.27;9.38;;;5.90;99.90;;;;;;5110358;28;20043;-65
2022/12/05 09:57:37;;;;;;;17.85;8.18;;;5.90;99.90;;;;;;5111980;28;20066;-65
2022/12/05 10:00:36;;;;;;;16.30;9.23;;;5.90;99.90;;;;;;5093411;28;20063;-65
2022/12/05 10:04:04;;;;;;;16.45;9.25;;;5.90;99.90;;;;;;5107139;28;20048;-65
2022/12/05 10:07:22;;;;;;;22.02;9.65;;;5.90;99.90;;;;;;5065956;28;20042;-65
2022/12/05 10:10:27;;;;;;;19.33;9.30;;;5.90;99.90;;;;;;5057054;28;20100;-65
2022/12/05 10:13:36;;;;;;;18.23;8.90;;;5.90;99.90;;;;;;5110485;28;20056;-65
2022/12/05 10:16:22;;;;;;;22.23;9.55;;;5.90;99.90;;;;;;5106444;28;20050;-65
2022/12/05 10:18:54;;;;;;;17.58;9.52;;;5.90;99.90;;;;;;5099399;28;20054;-65
2022/12/05 10:21:32;;;;;;;15.88;8.55;;;5.90;99.90;;;;;;5069151;28;20063;-65
2022/12/05 10:24:11;;;;;;;20.35;10.00;;;5.90;99.90;;;;;;5088182;28;20480;-65
2022/12/05 10:26:44;;;;;;;22.83;9.48;;;5.90;99.90;;;;;;5106813;28;20044;-65
2022/12/05 10:29:27;;;;;;;19.17;9.52;;;5.90;99.90;;;;;;5088501;28;20061;-65
2022/12/05 10:32:04;;;;;;;19.95;10.20;;;5.80;99.90;;;;;;5073048;28;20141;-65
2022/12/05 10:34:32;;;;;;;21.92;10.02;;;5.90;99.90;;;;;;5073118;28;20083;-65
2022/12/05 10:37:18;;;;;;;27.15;11.20;;;5.90;99.90;;;;;;5087634;28;20127;-65
2022/12/05 10:39:46;;;;;;;24.75;11.88;;;5.90;99.90;;;;;;5104596;28;20047;-66
2022/12/05 10:42:23;;;;;;;18.38;9.88;;;5.80;99.90;;;;;;5092771;28;20031;-66
2022/12/05 10:44:58;;;;;;;23.08;10.38;;;5.80;99.90;;;;;;5089916;28;20040;-66
2022/12/05 10:47:24;;;;;;;27.15;11.23;;;5.80;99.90;;;;;;5111410;28;20507;-65
2022/12/05 10:49:51;;;;;;;26.23;12.25;;;5.80;99.90;;;;;;5110888;28;20043;-66
2022/12/05 10:52:17;;;;;;;24.40;11.60;;;5.80;99.90;;;;;;5091709;28;20055;-65
2022/12/05 10:54:53;;;;;;;28.33;13.25;;;5.80;99.90;;;;;;5111115;28;20051;-66
2022/12/05 10:57:23;;;;;;;22.65;11.30;;;5.80;99.90;;;;;;5092375;28;20046;-66
2022/12/05 10:59:49;;;;;;;28.05;13.10;;;5.80;99.90;;;;;;5089807;28;20400;-66
2022/12/05 11:02:30;;;;;;;26.20;11.95;;;5.80;99.90;;;;;;5073043;28;20110;-65
2022/12/05 11:05:02;;;;;;;25.60;12.65;;;5.80;99.90;;;;;;5056301;28;20047;-65
2022/12/05 11:07:33;;;;;;;25.50;12.20;;;5.80;99.90;;;;;;5089261;28;20529;-65
2022/12/05 11:10:01;;;;;;;27.65;12.45;;;5.80;99.90;;;;;;5082532;28;20123;-65
2022/12/05 11:12:45;;;;;;;24.75;12.38;;;5.80;99.90;;;;;;5111067;28;20043;-66
2022/12/05 11:15:18;;;;;;;27.27;11.80;;;5.90;99.90;;;;;;5110868;28;20039;-66
2022/12/05 11:17:45;;;;;;;22.85;12.45;;;5.90;99.90;;;;;;5061457;28;20063;-65
2022/12/05 11:20:16;;;;;;;32.03;13.50;;;5.90;99.90;;;;;;5084993;28;20404;-65
2022/12/05 11:22:43;;;;;;;24.00;12.55;;;5.90;99.90;;;;;;5110006;28;20076;-65
2022/12/05 11:25:27;;;;;;;22.30;12.68;;;6.00;99.90;;;;;;5110372;28;20074;-65
2022/12/05 11:27:58;;;;;;;27.55;13.30;;;6.00;99.90;;;;;;5110214;28;20044;-65
2022/12/05 11:30:27;;;;;;;23.40;11.15;;;6.00;99.90;;;;;;5092503;28;20052;-66
2022/12/05 11:33:24;;;;;;;31.23;13.25;;;5.90;99.90;;;;;;5092174;28;20048;-65
2022/12/05 11:35:53;;;;;;;28.25;13.38;;;6.00;99.90;;;;;;5109407;28;20051;-65
2022/12/05 11:38:23;;;;;;;22.85;12.30;;;6.00;99.90;;;;;;5110686;28;20098;-65
2022/12/05 11:41:31;;;;;;;24.08;12.75;;;6.00;99.90;;;;;;5091942;28;20035;-66
2022/12/05 11:44:40;;;;;;;22.15;11.27;;;6.00;99.90;;;;;;5073412;28;20044;-65
2022/12/05 11:47:20;;;;;;;22.33;12.05;;;6.00;99.90;;;;;;5066907;28;20485;-65
2022/12/05 11:50:13;;;;;;;27.13;11.73;;;6.00;99.90;;;;;;5090447;28;20101;-65
2022/12/05 11:53:13;;;;;;;23.33;12.15;;;6.00;99.90;;;;;;5090892;28;20411;-65
2022/12/05 11:56:04;;;;;;;16.88;9.27;;;6.00;99.90;;;;;;5073684;28;20039;-65
2022/12/05 11:58:42;;;;;;;19.77;10.30;;;6.00;99.90;;;;;;5105590;28;20036;-65
2022/12/05 12:01:22;;;;;;;19.90;11.27;;;6.00;99.90;;;;;;5110365;28;20092;-65
2022/12/05 12:04:00;;;;;;;17.20;10.15;;;6.00;99.90;;;;;;5110398;28;20038;-65
2022/12/05 12:06:58;;;;;;;16.35;9.32;;;6.00;99.90;;;;;;5089046;28;20065;-65
2022/12/05 12:09:50;;;;;;;18.45;8.88;;;6.00;99.90;;;;;;5101836;28;20443;-65
2022/12/05 12:12:29;;;;;;;18.45;9.07;;;6.00;99.90;;;;;;5092209;28;20075;-65
2022/12/05 12:15:10;;;;;;;15.25;8.68;;;6.00;99.90;;;;;;5092050;28;20051;-65
2022/12/05 12:17:58;;;;;;;15.88;7.75;;;5.90;99.90;;;;;;5110375;28;20040;-66
2022/12/05 12:20:50;;;;;;;25.65;8.63;;;6.00;99.90;;;;;;5088960;28;20044;-65
2022/12/05 12:23:46;;;;;;;13.20;7.28;;;5.90;99.90;;;;;;5090905;28;20043;-65
2022/12/05 12:26:20;;;;;;;15.00;7.97;;;5.90;99.90;;;;;;5108285;28;20187;-65
2022/12/05 12:29:08;;;;;;;14.32;7.50;;;5.90;99.90;;;;;;5077783;28;20061;-65
2022/12/05 12:31:52;;;;;;;15.68;7.30;;;5.90;99.90;;;;;;5098041;28;20071;-65
2022/12/05 12:34:55;;;;;;;17.17;7.57;;;5.90;99.90;;;;;;5088674;28;20032;-65
2022/12/05 12:37:44;;;;;;;16.35;8.23;;;5.90;99.90;;;;;;5101405;28;20516;-65
2022/12/05 12:40:27;;;;;;;16.20;8.00;;;5.90;99.90;;;;;;5113906;28;20039;-65
2022/12/05 12:43:12;;;;;;;18.23;8.95;;;5.90;99.90;;;;;;5113946;28;20383;-65
2022/12/05 12:46:15;;;;;;;16.60;8.65;;;5.90;99.90;;;;;;5113568;28;20044;-65
2022/12/05 12:49:03;;;;;;;21.30;10.05;;;5.90;99.90;;;;;;5113676;28;20036;-65
2022/12/05 12:51:32;;;;;;;19.27;9.75;;;5.90;99.90;;;;;;5091488;28;20039;-66
2022/12/05 12:54:09;;;;;;;20.77;10.32;;;5.90;99.90;;;;;;5111454;28;20042;-65
2022/12/05 12:57:05;;;;;;;18.65;9.95;;;5.90;99.90;;;;;;5081775;28;20040;-65
2022/12/05 12:59:58;;;;;;;19.85;10.15;;;5.90;99.90;;;;;;5090529;28;20047;-65
2022/12/05 13:02:50;;;;;;;22.42;11.40;;;5.90;99.90;;;;;;5064033;28;20072;-65
2022/12/05 13:05:18;;;;;;;23.92;11.45;;;5.90;99.90;;;;;;5093870;28;20369;-65
2022/12/05 13:08:03;;;;;;;21.38;11.70;;;5.90;99.90;;;;;;5091144;28;20044;-65
2022/12/05 13:10:36;;;;;;;24.23;11.48;;;5.90;99.90;;;;;;5111009;28;20039;-66
2022/12/05 13:13:05;;;;;;;25.85;12.13;;;5.90;99.90;;;;;;5112723;28;20046;-65
2022/12/05 13:15:36;;;;;;;21.67;10.13;;;5.90;99.90;;;;;;5089897;28;20040;-64
2022/12/05 13:18:04;;;;;;;19.42;8.73;;;5.90;99.90;;;;;;5104875;28;20032;-64
2022/12/05 13:20:33;;;;;;;19.33;9.40;;;5.90;99.90;;;;;;5092274;28;20047;-65
2022/12/05 13:23:01;;;;;;;15.40;7.78;;;5.90;99.90;;;;;;5098217;28;20038;-64